Time;durP1;ratioP1;P1;durP2;ratioP2;P2;SDS_P1;SDS_P2;PMS_P1;PMS_P2;Temp;Humidity;BMP_temperature;BMP_pressure;BME280_temperature;BME280_humidity;BME280_pressure;Samples;Min_cycle;Max_cycle;Signal;HPM_P1;HPM_P2
2023/01/28 00:05:09;;;;;;;0.22;0.22;;;;;;;16.16;65.34;102666.75;20137318;29;20057;-89
2023/01/28 00:15:11;;;;;;;0.45;0.20;;;;;;;16.16;65.14;102665.84;20158474;29;20060;-89
2023/01/28 00:25:14;;;;;;;1.80;0.55;;;;;;;15.89;65.06;102628.75;20118422;29;20140;-90
2023/01/28 00:35:16;;;;;;;0.55;0.30;;;;;;;16.15;65.19;102658.75;20154164;29;20049;-90
2023/01/28 00:45:19;;;;;;;0.20;0.20;;;;;;;16.06;64.77;102639.47;20144621;29;20085;-90
2023/01/28 00:55:20;;;;;;;0.22;0.10;;;;;;;16.13;64.88;102642.72;20145623;29;20112;-90
2023/01/28 01:05:22;;;;;;;0.20;0.20;;;;;;;16.12;65.19;102654.38;20125642;29;20065;-89
2023/01/28 01:15:23;;;;;;;0.20;0.20;;;;;;;16.12;65.13;102649.00;20159271;29;20061;-90
2023/01/28 01:25:25;;;;;;;0.20;0.20;;;;;;;15.87;64.86;102611.81;20154349;29;20418;-89
2023/01/28 01:35:27;;;;;;;0.20;0.20;;;;;;;15.99;65.00;102638.06;20144125;29;20123;-90
2023/01/28 01:45:32;;;;;;;0.22;0.10;;;;;;;16.11;65.04;102673.28;20166587;29;20388;-90
2023/01/28 01:55:36;;;;;;;0.60;0.20;;;;;;;16.11;65.05;102682.22;20141647;29;20052;-89
2023/01/28 02:05:39;;;;;;;0.20;0.20;;;;;;;16.11;64.84;102670.59;20147162;29;20045;-90
2023/01/28 02:15:43;;;;;;;0.20;0.20;;;;;;;16.10;64.92;102675.09;20124023;29;20136;-91
2023/01/28 02:26:07;;;;;;;0.20;0.20;;;;;;;16.09;64.82;102676.94;20112557;29;20053;-90
2023/01/28 02:36:22;;;;;;;0.20;0.20;;;;;;;15.95;64.67;102647.25;20142972;29;20056;-90
2023/01/28 02:56:49;;;;;;;0.20;0.20;;;;;;;16.01;64.58;102657.66;20139090;29;20060;-89
2023/01/28 03:06:54;;;;;;;0.10;0.10;;;;;;;15.88;64.56;102635.06;20137643;29;20136;-89
2023/01/28 03:37:51;;;;;;;0.20;0.20;;;;;;;15.84;64.68;102628.97;20142927;29;20096;-90
2023/01/28 03:47:57;;;;;;;0.10;0.10;;;;;;;16.06;64.61;102655.59;20131903;29;20185;-89
2023/01/28 03:57:59;;;;;;;0.10;0.10;;;;;;;16.06;64.70;102660.09;20145889;29;20044;-89
2023/01/28 04:08:01;;;;;;;0.25;0.15;;;;;;;16.06;64.68;102670.84;20139321;29;20061;-89
2023/01/28 04:18:26;;;;;;;0.08;0.08;;;;;;;16.05;64.63;102672.66;20157338;29;20053;-90
2023/01/28 04:28:30;;;;;;;0.13;0.13;;;;;;;16.05;64.54;102683.41;20142844;29;20160;-89
2023/01/28 04:38:32;;;;;;;0.10;0.10;;;;;;;16.05;64.37;102694.16;20146310;29;20120;-89
2023/01/28 04:48:40;;;;;;;0.10;0.10;;;;;;;16.00;64.35;102653.25;20158268;29;20072;-90
2023/01/28 04:58:54;;;;;;;0.10;0.10;;;;;;;16.04;64.50;102673.63;20139576;29;20087;-90
2023/01/28 05:08:56;;;;;;;0.20;0.20;;;;;;;15.80;64.45;102622.88;20135864;29;20047;-90
2023/01/28 05:18:58;;;;;;;0.20;0.20;;;;;;;16.05;64.27;102652.97;20124841;29;20045;-89
2023/01/28 05:29:06;;;;;;;0.20;0.20;;;;;;;16.03;64.38;102657.56;20137200;29;20057;-89
2023/01/28 05:39:08;;;;;;;0.10;0.10;;;;;;;16.03;64.39;102645.03;20122597;29;20411;-89
2023/01/28 05:49:12;;;;;;;0.10;0.10;;;;;;;15.84;64.33;102606.59;20130899;29;20053;-90
2023/01/28 05:59:32;;;;;;;0.10;0.10;;;;;;;16.03;64.30;102649.50;20151352;29;20431;-90
2023/01/28 06:09:34;;;;;;;0.20;0.20;;;;;;;16.03;64.45;102650.41;20134785;29;20054;-90
2023/01/28 06:19:35;;;;;;;0.20;0.20;;;;;;;15.91;64.30;102624.19;20156454;29;20069;-90
2023/01/28 06:29:37;;;;;;;0.20;0.20;;;;;;;16.03;64.32;102636.06;20138708;29;20072;-91
2023/01/28 06:39:39;;;;;;;0.20;0.20;;;;;;;15.88;64.37;102638.63;20157046;29;20053;-90
2023/01/28 06:49:41;;;;;;;0.10;0.10;;;;;;;16.03;64.25;102660.25;20151625;29;20065;-90
2023/01/28 06:59:42;;;;;;;0.10;0.10;;;;;;;15.80;64.41;102630.09;20159133;29;20397;-90
2023/01/28 07:09:43;;;;;;;0.22;0.22;;;;;;;16.02;64.04;102672.84;20157265;29;20064;-89
2023/01/28 07:19:45;;;;;;;0.10;0.10;;;;;;;16.02;63.99;102702.38;20165886;29;20057;-88
2023/01/28 07:29:46;;;;;;;0.10;0.10;;;;;;;16.03;64.29;102711.31;20153384;29;20057;-90
2023/01/28 07:39:48;;;;;;;0.13;0.13;;;;;;;16.04;64.07;102715.72;20150822;29;20212;-90
2023/01/28 07:49:49;;;;;;;0.20;0.20;;;;;;;16.02;63.97;102707.75;20151905;29;20530;-90
2023/01/28 07:59:51;;;;;;;0.20;0.20;;;;;;;16.02;64.16;102686.28;20172306;29;20412;-89
2023/01/28 08:09:52;;;;;;;0.15;0.15;;;;;;;16.04;64.07;102691.53;20147950;29;20092;-91
2023/01/28 08:19:54;;;;;;;0.20;0.20;;;;;;;16.03;63.93;102671.88;20160033;29;20053;-90
2023/01/28 08:29:55;;;;;;;0.10;0.10;;;;;;;16.05;63.95;102701.34;20151509;29;20067;-90
2023/01/28 08:39:57;;;;;;;0.10;0.10;;;;;;;16.06;63.92;102725.47;20145028;29;20064;-89
2023/01/28 08:49:58;;;;;;;0.10;0.10;;;;;;;16.07;63.93;102743.31;20135681;29;20048;-88
2023/01/28 09:00:00;;;;;;;0.10;0.10;;;;;;;15.73;63.85;102680.53;20141308;29;20045;-91
2023/01/28 09:10:03;;;;;;;0.20;0.20;;;;;;;16.18;63.62;102749.94;20148149;29;20060;-86
2023/01/28 09:20:05;;;;;;;0.32;0.10;;;;;;;16.15;63.42;102772.50;20111929;29;20256;-88
2023/01/28 09:30:09;;;;;;;1.15;0.20;;;;;;;16.18;63.45;102774.13;20124413;29;20105;-85
2023/01/28 09:40:39;;;;;;;0.28;0.20;;;;;;;16.17;63.59;102780.44;20138516;29;20132;-87
2023/01/28 09:50:43;;;;;;;0.20;0.10;;;;;;;16.00;63.34;102760.69;20142101;29;20057;-87
2023/01/28 10:00:53;;;;;;;0.10;0.10;;;;;;;16.15;63.33;102777.88;20142488;29;20049;-87
2023/01/28 10:11:15;;;;;;;0.73;0.20;;;;;;;15.88;63.50;102731.75;20126209;29;20536;-87
2023/01/28 10:21:22;;;;;;;0.10;0.10;;;;;;;16.04;63.44;102759.59;20156589;29;20049;-87
2023/01/28 10:31:29;;;;;;;0.13;0.13;;;;;;;15.98;63.33;102743.78;20140939;29;20629;-88
2023/01/28 10:41:31;;;;;;;0.13;0.13;;;;;;;16.10;63.27;102720.78;20139466;29;20053;-89
2023/01/28 10:51:37;;;;;;;0.82;0.20;;;;;;;16.16;63.34;102681.97;20456079;23;20057;-94
2023/01/28 11:01:43;;;;;;;0.30;0.20;;;;;;;16.04;63.18;102662.88;20137729;29;20061;-91
2023/01/28 11:11:45;;;;;;;0.20;0.20;;;;;;;15.94;63.14;102626.72;20138887;29;20057;-89
2023/01/28 11:21:50;;;;;;;0.10;0.10;;;;;;;15.88;63.32;102627.88;20161984;29;20049;-94
2023/01/28 11:31:52;;;;;;;0.30;0.30;;;;;;;16.06;63.08;102677.09;20172761;29;20053;-93
2023/01/28 11:42:02;;;;;;;0.00;0.00;;;;;;;16.18;63.22;102682.75;20142454;29;20052;-92
2023/01/28 11:52:11;;;;;;;0.10;0.10;;;;;;;16.17;63.16;102679.22;20127886;29;20059;-93
2023/01/28 12:02:35;;;;;;;0.17;0.17;;;;;;;16.18;63.25;102672.00;20116864;29;20500;-91
2023/01/28 12:12:56;;;;;;;0.10;0.10;;;;;;;16.16;63.28;102677.50;20120045;29;20064;-91
2023/01/28 12:23:23;;;;;;;0.10;0.10;;;;;;;16.17;63.05;102656.84;20064903;29;20057;-91
2023/01/28 12:33:40;;;;;;;0.30;0.30;;;;;;;16.16;63.38;102630.94;20087547;29;20500;-89
2023/01/28 12:43:50;;;;;;;0.85;0.30;;;;;;;16.20;63.23;102624.44;20099849;29;20261;-89
2023/01/28 12:53:57;;;;;;;1.83;0.80;;;;;;;16.24;63.29;102608.06;20091447;29;20061;-87
2023/01/28 13:04:05;;;;;;;0.77;0.60;;;;;;;16.47;62.38;102621.19;20102788;29;20140;-93
2023/01/28 13:14:11;;;;;;;1.63;0.77;;;;;;;16.59;64.11;102593.63;20092580;29;20170;-90
2023/01/28 13:24:12;;;;;;;1.88;0.52;;;;;;;16.53;64.63;102602.88;20135261;29;20080;-90
2023/01/28 13:34:35;;;;;;;0.80;0.55;;;;;;;16.44;66.17;102616.00;20122641;29;20056;-86
2023/01/28 13:44:37;;;;;;;1.05;0.60;;;;;;;16.37;67.41;102600.22;20143547;29;20126;-96
2023/01/28 13:55:11;;;;;;;2.65;0.57;;;;;;;16.21;68.73;102572.41;20122488;29;20053;-92
2023/01/28 14:05:30;;;;;;;1.88;0.88;;;;;;;16.09;69.18;102566.78;20129617;29;20066;-90
2023/01/28 14:15:57;;;;;;;1.25;0.75;;;;;;;16.36;69.63;102593.09;20105714;29;20465;-88
2023/01/28 14:26:05;;;;;;;1.98;1.05;;;;;;;16.21;70.38;102572.41;20735894;23;20048;-95
2023/01/28 14:36:10;;;;;;;1.10;0.70;;;;;;;16.38;70.79;102615.38;20323110;29;20546;-94
2023/01/28 14:46:21;;;;;;;0.83;0.77;;;;;;;16.11;71.45;102622.25;20290104;28;20072;-92
2023/01/28 14:56:35;;;;;;;1.75;0.75;;;;;;;16.36;71.36;102636.09;20340678;29;20533;-96
2023/01/28 15:06:37;;;;;;;1.60;0.90;;;;;;;15.36;71.83;102513.31;20352213;29;20514;-94
2023/01/28 15:16:38;;;;;;;1.00;0.60;;;;;;;14.77;72.13;102358.13;20342801;29;20406;-93
2023/01/28 15:26:45;;;;;;;1.48;0.70;;;;;;;15.28;72.31;102481.53;20348815;29;20055;-95
2023/01/28 15:36:48;;;;;;;1.45;0.80;;;;;;;15.26;72.97;102466.47;20345024;29;20418;-94
2023/01/28 15:46:50;;;;;;;1.45;0.85;;;;;;;15.24;72.69;102458.47;20324728;29;20075;-92
2023/01/28 15:56:51;;;;;;;1.10;0.70;;;;;;;15.18;72.92;102421.25;20277161;29;20126;-91
2023/01/28 16:06:55;;;;;;;1.70;0.95;;;;;;;15.58;73.07;102493.41;20289924;29;20400;-94
2023/01/28 16:16:57;;;;;;;1.48;0.80;;;;;;;15.58;73.07;102493.41;20341889;23;20052;-94
2023/01/28 16:27:01;;;;;;;2.25;0.60;;;;;;;14.34;72.89;102319.16;20210700;29;20053;-93
2023/01/28 16:37:07;;;;;;;1.40;0.75;;;;;;;16.12;72.71;102575.63;20147172;29;20048;-93
2023/01/28 16:47:10;;;;;;;1.40;0.90;;;;;;;15.18;73.06;102467.72;20179082;29;20064;-94
2023/01/28 16:57:17;;;;;;;3.78;1.10;;;;;;;14.43;72.49;102307.09;20646270;23;20048;-95
2023/01/28 17:07:19;;;;;;;1.30;0.80;;;;;;;16.09;72.86;102580.22;20259915;29;20056;-95
2023/01/28 17:17:20;;;;;;;1.73;0.88;;;;;;;15.58;72.70;102507.69;20288663;29;20766;-92
2023/01/28 17:27:22;;;;;;;1.73;0.90;;;;;;;16.28;72.90;102635.63;20309770;29;20578;-93
2023/01/28 17:37:24;;;;;;;1.08;0.80;;;;;;;16.11;72.88;102678.66;20286467;28;20051;-91
2023/01/28 17:47:25;;;;;;;1.15;0.90;;;;;;;14.10;72.63;102317.69;20264689;29;20056;-92
2023/01/28 17:57:27;;;;;;;0.73;0.60;;;;;;;16.24;72.94;102674.38;20251466;29;20491;-88
2023/01/28 18:07:28;;;;;;;1.70;0.90;;;;;;;15.28;72.71;102519.09;20252309;29;20055;-92
2023/01/28 18:17:30;;;;;;;1.92;1.00;;;;;;;14.74;72.52;102431.50;20235929;29;20411;-90
2023/01/28 18:38:11;;;;;;;1.98;0.90;;;;;;;16.27;72.56;102679.56;20276205;29;20048;-86
2023/01/28 18:48:14;;;;;;;1.45;0.70;;;;;;;16.27;72.63;102681.41;20347734;28;20064;-96
2023/01/28 18:58:30;;;;;;;1.27;1.10;;;;;;;16.26;72.38;102683.22;20315953;29;20054;-95
2023/01/28 19:08:35;;;;;;;1.90;1.05;;;;;;;15.02;72.21;102464.09;20311216;29;20052;-95
2023/01/28 19:18:39;;;;;;;1.83;0.90;;;;;;;12.91;72.06;102096.00;20310678;29;20052;-96
2023/01/28 19:28:44;;;;;;;2.83;1.00;;;;;;;13.36;72.07;102213.28;20350609;29;20052;-95
2023/01/28 19:38:47;;;;;;;2.22;1.00;;;;;;;13.22;71.85;102186.31;20308339;29;20048;-96
2023/01/28 19:48:49;;;;;;;1.70;1.08;;;;;;;16.26;72.04;102644.75;20328511;29;20083;-95
2023/01/28 19:58:53;;;;;;;1.35;0.90;;;;;;;12.69;71.60;102052.50;20311777;29;20045;-95
2023/01/28 20:08:59;;;;;;;1.45;0.82;;;;;;;16.26;71.88;102631.31;20293219;29;20048;-96
2023/01/28 20:19:04;;;;;;;0.80;0.80;;;;;;;13.20;71.34;102197.13;20265271;29;20053;-96
2023/01/28 20:29:09;;;;;;;2.13;0.93;;;;;;;16.24;71.64;102631.38;20272348;29;20048;-95
2023/01/28 20:39:12;;;;;;;2.03;1.00;;;;;;;12.99;71.54;102129.50;20288963;29;20545;-95
2023/01/28 20:49:14;;;;;;;1.20;0.70;;;;;;;14.18;71.64;102280.69;20313470;29;20062;-95
2023/01/28 20:59:16;;;;;;;1.02;0.68;;;;;;;13.23;71.27;102115.84;20297878;29;20055;-96
2023/01/28 21:09:19;;;;;;;0.95;0.80;;;;;;;14.12;71.08;102287.22;20323244;29;20067;-96
2023/01/28 21:19:22;;;;;;;0.80;0.73;;;;;;;15.41;71.30;102524.69;20284005;29;20112;-96
2023/01/28 21:29:24;;;;;;;1.80;0.90;;;;;;;14.25;71.05;102357.13;20266322;29;20502;-96
2023/01/28 21:39:26;;;;;;;0.75;0.63;;;;;;;15.26;70.76;102487.91;20286914;29;20048;-95
2023/01/28 21:49:28;;;;;;;1.80;0.90;;;;;;;14.89;71.01;102429.88;20291738;29;20063;-96
2023/01/28 21:59:31;;;;;;;1.10;0.85;;;;;;;15.20;70.69;102462.28;20277352;29;20051;-95
2023/01/28 22:09:33;;;;;;;1.10;0.80;;;;;;;14.08;70.73;102253.50;20272258;29;20056;-95
2023/01/28 22:19:35;;;;;;;1.27;0.73;;;;;;;15.86;70.63;102543.81;20265537;29;20059;-96
2023/01/28 22:29:37;;;;;;;1.45;0.80;;;;;;;15.52;70.22;102490.13;20273369;29;20048;-95
2023/01/28 22:39:39;;;;;;;1.50;0.98;;;;;;;14.20;70.31;102252.03;20263127;29;20236;-96
2023/01/28 22:49:41;;;;;;;1.40;0.95;;;;;;;15.15;70.14;102419.59;20275402;29;20047;-95
2023/01/28 22:59:42;;;;;;;1.17;0.90;;;;;;;14.76;70.13;102369.78;20275839;29;20048;-94
2023/01/28 23:10:00;;;;;;;0.60;0.45;;;;;;;13.08;69.69;102056.84;20292237;29;20143;-96
2023/01/28 23:30:24;;;;;;;1.30;0.90;;;;;;;14.94;69.90;102370.66;20291378;29;20041;-95
2023/01/28 23:40:26;;;;;;;0.63;0.60;;;;;;;14.07;69.86;102204.44;20258856;29;20554;-95
2023/01/28 23:50:27;;;;;;;0.60;0.60;;;;;;;15.11;69.71;102401.94;20285182;29;20087;-96
